<?xml version="1.0" encoding="UTF-8" standalone="no" ?>
<gpx xmlns="http://www.topografix.com/GPX/1/1" xmlns:xsi="http://www.w3.org/2001/XMLSchema-instance" xsi:schemaLocation="http://www.topografix.com/GPX/1/1 http://www.topografix.com/GPX/1/1/gpx.xsd" version="1.1" creator="VisuGPX - https://www.visugpx.com">
  <metadata>
    <name>PichaurisJack</name>
    <desc><![CDATA[Une trace raccourcie pour éviter le détour est. ]]></desc>
  </metadata>
  <trk>
    <name><![CDATA[20190324180735-N3QPC]]></name>
    <trkseg>
      <trkpt lat="43.37045" lon="5.53676">
        <ele>307.899993</ele>
        <time>2015-04-22T06:58:04Z</time>
      </trkpt>
      <trkpt lat="43.37045" lon="5.53674">
        <ele>309.700012</ele>
        <time>2015-04-22T06:58:05Z</time>
      </trkpt>
      <trkpt lat="43.37048" lon="5.537">
        <ele>314.2</ele>
        <time>2015-04-22T07:03:57Z</time>
      </trkpt>
      <trkpt lat="43.37016" lon="5.5372">
        <ele>318.2</ele>
        <time>2015-04-22T07:04:37Z</time>
      </trkpt>
      <trkpt lat="43.36999" lon="5.53725">
        <ele>318.2</ele>
        <time>2015-04-22T07:04:54Z</time>
      </trkpt>
      <trkpt lat="43.36981" lon="5.53727">
        <ele>320.2</ele>
        <time>2015-04-22T07:05:11Z</time>
      </trkpt>
      <trkpt lat="43.3698" lon="5.53726">
        <ele>320.3</ele>
        <time>2015-04-22T07:05:12Z</time>
      </trkpt>
      <trkpt lat="43.36948" lon="5.53736">
        <ele>325.2</ele>
        <time>2015-04-22T07:05:45Z</time>
      </trkpt>
      <trkpt lat="43.36934" lon="5.5375">
        <ele>321.6</ele>
        <time>2015-04-22T07:05:59Z</time>
      </trkpt>
      <trkpt lat="43.36923" lon="5.53768">
        <ele>324.7</ele>
        <time>2015-04-22T07:06:11Z</time>
      </trkpt>
      <trkpt lat="43.36922" lon="5.5377">
        <ele>324.7</ele>
        <time>2015-04-22T07:06:12Z</time>
      </trkpt>
      <trkpt lat="43.36901" lon="5.53807">
        <ele>324.2</ele>
        <time>2015-04-22T07:06:40Z</time>
      </trkpt>
      <trkpt lat="43.36887" lon="5.53822">
        <ele>326.3</ele>
        <time>2015-04-22T07:06:59Z</time>
      </trkpt>
      <trkpt lat="43.36871" lon="5.53834">
        <ele>325.7</ele>
        <time>2015-04-22T07:07:14Z</time>
      </trkpt>
      <trkpt lat="43.3687" lon="5.53834">
        <ele>325.2</ele>
        <time>2015-04-22T07:07:15Z</time>
      </trkpt>
      <trkpt lat="43.36843" lon="5.53808">
        <ele>329.1</ele>
        <time>2015-04-22T07:07:49Z</time>
      </trkpt>
      <trkpt lat="43.36837" lon="5.53786">
        <ele>329.3</ele>
        <time>2015-04-22T07:08:07Z</time>
      </trkpt>
      <trkpt lat="43.36838" lon="5.53762">
        <ele>329.8</ele>
        <time>2015-04-22T07:08:23Z</time>
      </trkpt>
      <trkpt lat="43.36838" lon="5.53761">
        <ele>329.7</ele>
        <time>2015-04-22T07:08:24Z</time>
      </trkpt>
      <trkpt lat="43.36855" lon="5.53721">
        <ele>325.1</ele>
        <time>2015-04-22T07:08:57Z</time>
      </trkpt>
      <trkpt lat="43.36861" lon="5.53698">
        <ele>323.2</ele>
        <time>2015-04-22T07:09:13Z</time>
      </trkpt>
      <trkpt lat="43.36869" lon="5.53677">
        <ele>323.3</ele>
        <time>2015-04-22T07:09:28Z</time>
      </trkpt>
      <trkpt lat="43.36869" lon="5.53675">
        <ele>323.1</ele>
        <time>2015-04-22T07:09:29Z</time>
      </trkpt>
      <trkpt lat="43.36877" lon="5.5363">
        <ele>327.2</ele>
        <time>2015-04-22T07:09:59Z</time>
      </trkpt>
      <trkpt lat="43.3688" lon="5.53607">
        <ele>327.2</ele>
        <time>2015-04-22T07:10:12Z</time>
      </trkpt>
      <trkpt lat="43.36887" lon="5.53585">
        <ele>330.2</ele>
        <time>2015-04-22T07:10:27Z</time>
      </trkpt>
      <trkpt lat="43.36879" lon="5.53564">
        <ele>331.5</ele>
        <time>2015-04-22T07:10:42Z</time>
      </trkpt>
      <trkpt lat="43.36878" lon="5.53563">
        <ele>331.5</ele>
        <time>2015-04-22T07:10:43Z</time>
      </trkpt>
      <trkpt lat="43.36848" lon="5.53539">
        <ele>325.2</ele>
        <time>2015-04-22T07:11:17Z</time>
      </trkpt>
      <trkpt lat="43.36834" lon="5.53524">
        <ele>323.8</ele>
        <time>2015-04-22T07:11:32Z</time>
      </trkpt>
      <trkpt lat="43.36822" lon="5.53506">
        <ele>326.7</ele>
        <time>2015-04-22T07:11:45Z</time>
      </trkpt>
      <trkpt lat="43.36821" lon="5.53505">
        <ele>326.8</ele>
        <time>2015-04-22T07:11:46Z</time>
      </trkpt>
      <trkpt lat="43.36799" lon="5.5347">
        <ele>331.8</ele>
        <time>2015-04-22T07:12:23Z</time>
      </trkpt>
      <trkpt lat="43.36796" lon="5.53446">
        <ele>335.5</ele>
        <time>2015-04-22T07:12:37Z</time>
      </trkpt>
      <trkpt lat="43.36796" lon="5.53422">
        <ele>334.7</ele>
        <time>2015-04-22T07:12:52Z</time>
      </trkpt>
      <trkpt lat="43.36796" lon="5.5342">
        <ele>334.7</ele>
        <time>2015-04-22T07:12:53Z</time>
      </trkpt>
      <trkpt lat="43.36769" lon="5.53393">
        <ele>332.7</ele>
        <time>2015-04-22T07:13:29Z</time>
      </trkpt>
      <trkpt lat="43.36753" lon="5.53382">
        <ele>335.1</ele>
        <time>2015-04-22T07:13:48Z</time>
      </trkpt>
      <trkpt lat="43.36736" lon="5.53376">
        <ele>332.3</ele>
        <time>2015-04-22T07:14:07Z</time>
      </trkpt>
      <trkpt lat="43.36735" lon="5.53375">
        <ele>332.1</ele>
        <time>2015-04-22T07:14:08Z</time>
      </trkpt>
      <trkpt lat="43.36717" lon="5.53336">
        <ele>345.6</ele>
        <time>2015-04-22T07:14:47Z</time>
      </trkpt>
      <trkpt lat="43.3671" lon="5.53314">
        <ele>348.2</ele>
        <time>2015-04-22T07:15:10Z</time>
      </trkpt>
      <trkpt lat="43.3671" lon="5.53313">
        <ele>348.3</ele>
        <time>2015-04-22T07:15:11Z</time>
      </trkpt>
      <trkpt lat="43.36686" lon="5.53287">
        <ele>350</ele>
        <time>2015-04-22T07:20:58Z</time>
      </trkpt>
      <trkpt lat="43.36685" lon="5.53288">
        <ele>350</ele>
        <time>2015-04-22T07:20:59Z</time>
      </trkpt>
      <trkpt lat="43.36662" lon="5.53323">
        <ele>349.7</ele>
        <time>2015-04-22T07:21:37Z</time>
      </trkpt>
      <trkpt lat="43.36652" lon="5.53343">
        <ele>351.8</ele>
        <time>2015-04-22T07:21:50Z</time>
      </trkpt>
      <trkpt lat="43.36638" lon="5.53356">
        <ele>353.7</ele>
        <time>2015-04-22T07:22:07Z</time>
      </trkpt>
      <trkpt lat="43.36637" lon="5.53357">
        <ele>353.6</ele>
        <time>2015-04-22T07:22:08Z</time>
      </trkpt>
      <trkpt lat="43.36604" lon="5.53369">
        <ele>351.6</ele>
        <time>2015-04-22T07:22:36Z</time>
      </trkpt>
      <trkpt lat="43.36587" lon="5.53373">
        <ele>353.7</ele>
        <time>2015-04-22T07:22:51Z</time>
      </trkpt>
      <trkpt lat="43.36571" lon="5.5338">
        <ele>354.8</ele>
        <time>2015-04-22T07:23:06Z</time>
      </trkpt>
      <trkpt lat="43.36555" lon="5.53393">
        <ele>355.5</ele>
        <time>2015-04-22T07:23:21Z</time>
      </trkpt>
      <trkpt lat="43.36554" lon="5.53393">
        <ele>355.5</ele>
        <time>2015-04-22T07:23:22Z</time>
      </trkpt>
      <trkpt lat="43.36523" lon="5.53411">
        <ele>358.5</ele>
        <time>2015-04-22T07:23:51Z</time>
      </trkpt>
      <trkpt lat="43.36506" lon="5.53418">
        <ele>360.2</ele>
        <time>2015-04-22T07:24:08Z</time>
      </trkpt>
      <trkpt lat="43.3649" lon="5.53429">
        <ele>361.7</ele>
        <time>2015-04-22T07:24:24Z</time>
      </trkpt>
      <trkpt lat="43.36489" lon="5.5343">
        <ele>361.8</ele>
        <time>2015-04-22T07:24:25Z</time>
      </trkpt>
      <trkpt lat="43.36458" lon="5.5345">
        <ele>365.3</ele>
        <time>2015-04-22T07:25:01Z</time>
      </trkpt>
      <trkpt lat="43.36443" lon="5.53461">
        <ele>367.5</ele>
        <time>2015-04-22T07:25:18Z</time>
      </trkpt>
      <trkpt lat="43.36427" lon="5.53468">
        <ele>370.2</ele>
        <time>2015-04-22T07:25:37Z</time>
      </trkpt>
      <trkpt lat="43.36426" lon="5.53468">
        <ele>370.2</ele>
        <time>2015-04-22T07:25:38Z</time>
      </trkpt>
      <trkpt lat="43.36392" lon="5.53467">
        <ele>376.7</ele>
        <time>2015-04-22T07:26:17Z</time>
      </trkpt>
      <trkpt lat="43.36375" lon="5.53461">
        <ele>379.6</ele>
        <time>2015-04-22T07:26:38Z</time>
      </trkpt>
      <trkpt lat="43.36374" lon="5.53461">
        <ele>379.7</ele>
        <time>2015-04-22T07:26:39Z</time>
      </trkpt>
      <trkpt lat="43.3634" lon="5.53451">
        <ele>386.6</ele>
        <time>2015-04-22T07:27:24Z</time>
      </trkpt>
      <trkpt lat="43.36323" lon="5.53456">
        <ele>389.7</ele>
        <time>2015-04-22T07:27:45Z</time>
      </trkpt>
      <trkpt lat="43.36323" lon="5.53456">
        <ele>389.7</ele>
        <time>2015-04-22T07:27:46Z</time>
      </trkpt>
      <trkpt lat="43.36291" lon="5.53472">
        <ele>395.7</ele>
        <time>2015-04-22T07:28:23Z</time>
      </trkpt>
      <trkpt lat="43.36277" lon="5.53485">
        <ele>398.5</ele>
        <time>2015-04-22T07:28:42Z</time>
      </trkpt>
      <trkpt lat="43.36264" lon="5.53501">
        <ele>399.1</ele>
        <time>2015-04-22T07:28:58Z</time>
      </trkpt>
      <trkpt lat="43.36263" lon="5.53502">
        <ele>399.2</ele>
        <time>2015-04-22T07:28:59Z</time>
      </trkpt>
      <trkpt lat="43.36241" lon="5.53538">
        <ele>404</ele>
        <time>2015-04-22T07:29:37Z</time>
      </trkpt>
      <trkpt lat="43.36227" lon="5.53552">
        <ele>405.6</ele>
        <time>2015-04-22T07:29:53Z</time>
      </trkpt>
      <trkpt lat="43.36212" lon="5.53564">
        <ele>405</ele>
        <time>2015-04-22T07:30:09Z</time>
      </trkpt>
      <trkpt lat="43.36211" lon="5.53565">
        <ele>405.2</ele>
        <time>2015-04-22T07:30:10Z</time>
      </trkpt>
      <trkpt lat="43.36183" lon="5.5359">
        <ele>408.7</ele>
        <time>2015-04-22T07:30:45Z</time>
      </trkpt>
      <trkpt lat="43.36165" lon="5.53592">
        <ele>408.3</ele>
        <time>2015-04-22T07:31:02Z</time>
      </trkpt>
      <trkpt lat="43.36151" lon="5.53576">
        <ele>410.7</ele>
        <time>2015-04-22T07:31:19Z</time>
      </trkpt>
      <trkpt lat="43.36151" lon="5.53575">
        <ele>410.6</ele>
        <time>2015-04-22T07:31:20Z</time>
      </trkpt>
      <trkpt lat="43.36133" lon="5.53535">
        <ele>410.7</ele>
        <time>2015-04-22T07:31:53Z</time>
      </trkpt>
      <trkpt lat="43.36124" lon="5.53514">
        <ele>410.3</ele>
        <time>2015-04-22T07:32:10Z</time>
      </trkpt>
      <trkpt lat="43.36107" lon="5.53506">
        <ele>408.8</ele>
        <time>2015-04-22T07:32:26Z</time>
      </trkpt>
      <trkpt lat="43.36106" lon="5.53505">
        <ele>409</ele>
        <time>2015-04-22T07:32:27Z</time>
      </trkpt>
      <trkpt lat="43.36073" lon="5.53499">
        <ele>406.2</ele>
        <time>2015-04-22T07:32:58Z</time>
      </trkpt>
      <trkpt lat="43.36063" lon="5.53479">
        <ele>405.8</ele>
        <time>2015-04-22T07:33:15Z</time>
      </trkpt>
      <trkpt lat="43.36055" lon="5.53458">
        <ele>406.5</ele>
        <time>2015-04-22T07:33:30Z</time>
      </trkpt>
      <trkpt lat="43.36055" lon="5.53457">
        <ele>406.5</ele>
        <time>2015-04-22T07:33:31Z</time>
      </trkpt>
      <trkpt lat="43.36041" lon="5.53415">
        <ele>407.7</ele>
        <time>2015-04-22T07:34:00Z</time>
      </trkpt>
      <trkpt lat="43.36029" lon="5.53397">
        <ele>409.2</ele>
        <time>2015-04-22T07:34:17Z</time>
      </trkpt>
      <trkpt lat="43.36013" lon="5.53406">
        <ele>411.1</ele>
        <time>2015-04-22T07:34:34Z</time>
      </trkpt>
      <trkpt lat="43.36012" lon="5.53407">
        <ele>411</ele>
        <time>2015-04-22T07:34:35Z</time>
      </trkpt>
      <trkpt lat="43.35988" lon="5.53439">
        <ele>411</ele>
        <time>2015-04-22T07:35:05Z</time>
      </trkpt>
      <trkpt lat="43.35976" lon="5.53456">
        <ele>409.7</ele>
        <time>2015-04-22T07:35:19Z</time>
      </trkpt>
      <trkpt lat="43.35964" lon="5.53475">
        <ele>409.5</ele>
        <time>2015-04-22T07:35:35Z</time>
      </trkpt>
      <trkpt lat="43.35963" lon="5.53476">
        <ele>409.5</ele>
        <time>2015-04-22T07:35:36Z</time>
      </trkpt>
      <trkpt lat="43.35936" lon="5.53502">
        <ele>411.8</ele>
        <time>2015-04-22T07:36:07Z</time>
      </trkpt>
      <trkpt lat="43.3592" lon="5.53512">
        <ele>413.7</ele>
        <time>2015-04-22T07:36:22Z</time>
      </trkpt>
      <trkpt lat="43.35903" lon="5.53519">
        <ele>416.5</ele>
        <time>2015-04-22T07:36:37Z</time>
      </trkpt>
      <trkpt lat="43.35902" lon="5.53519">
        <ele>416.6</ele>
        <time>2015-04-22T07:36:38Z</time>
      </trkpt>
      <trkpt lat="43.3587" lon="5.53506">
        <ele>415</ele>
        <time>2015-04-22T07:37:09Z</time>
      </trkpt>
      <trkpt lat="43.3586" lon="5.53487">
        <ele>414.7</ele>
        <time>2015-04-22T07:37:26Z</time>
      </trkpt>
      <trkpt lat="43.35851" lon="5.53467">
        <ele>414.7</ele>
        <time>2015-04-22T07:37:41Z</time>
      </trkpt>
      <trkpt lat="43.3585" lon="5.53466">
        <ele>414.7</ele>
        <time>2015-04-22T07:37:42Z</time>
      </trkpt>
      <trkpt lat="43.35835" lon="5.53423">
        <ele>416.7</ele>
        <time>2015-04-22T07:38:11Z</time>
      </trkpt>
      <trkpt lat="43.35829" lon="5.53401">
        <ele>415.6</ele>
        <time>2015-04-22T07:38:26Z</time>
      </trkpt>
      <trkpt lat="43.35822" lon="5.5338">
        <ele>413.7</ele>
        <time>2015-04-22T07:38:42Z</time>
      </trkpt>
      <trkpt lat="43.35821" lon="5.53378">
        <ele>413.7</ele>
        <time>2015-04-22T07:38:43Z</time>
      </trkpt>
      <trkpt lat="43.3582" lon="5.53333">
        <ele>418</ele>
        <time>2015-04-22T07:39:11Z</time>
      </trkpt>
      <trkpt lat="43.35828" lon="5.53311">
        <ele>419.5</ele>
        <time>2015-04-22T07:39:27Z</time>
      </trkpt>
      <trkpt lat="43.35838" lon="5.53291">
        <ele>420.7</ele>
        <time>2015-04-22T07:39:43Z</time>
      </trkpt>
      <trkpt lat="43.35838" lon="5.5329">
        <ele>420.7</ele>
        <time>2015-04-22T07:39:44Z</time>
      </trkpt>
      <trkpt lat="43.35845" lon="5.53245">
        <ele>423.5</ele>
        <time>2015-04-22T07:40:18Z</time>
      </trkpt>
      <trkpt lat="43.35827" lon="5.53242">
        <ele>427</ele>
        <time>2015-04-22T07:43:29Z</time>
      </trkpt>
      <trkpt lat="43.35826" lon="5.53242">
        <ele>426.8</ele>
        <time>2015-04-22T07:43:30Z</time>
      </trkpt>
      <trkpt lat="43.35799" lon="5.53271">
        <ele>431.2</ele>
        <time>2015-04-22T07:44:30Z</time>
      </trkpt>
      <trkpt lat="43.35798" lon="5.53272">
        <ele>431.2</ele>
        <time>2015-04-22T07:44:31Z</time>
      </trkpt>
      <trkpt lat="43.35764" lon="5.53271">
        <ele>435.2</ele>
        <time>2015-04-22T07:45:09Z</time>
      </trkpt>
      <trkpt lat="43.3575" lon="5.53257">
        <ele>438.1</ele>
        <time>2015-04-22T07:45:31Z</time>
      </trkpt>
      <trkpt lat="43.3574" lon="5.53277">
        <ele>443.7</ele>
        <time>2015-04-22T07:46:15Z</time>
      </trkpt>
      <trkpt lat="43.3574" lon="5.53279">
        <ele>443.7</ele>
        <time>2015-04-22T07:46:16Z</time>
      </trkpt>
      <trkpt lat="43.3575" lon="5.53323">
        <ele>446.2</ele>
        <time>2015-04-22T07:46:56Z</time>
      </trkpt>
      <trkpt lat="43.3575" lon="5.53348">
        <ele>446.8</ele>
        <time>2015-04-22T07:47:21Z</time>
      </trkpt>
      <trkpt lat="43.3575" lon="5.53349">
        <ele>446.8</ele>
        <time>2015-04-22T07:47:22Z</time>
      </trkpt>
      <trkpt lat="43.35745" lon="5.533">
        <ele>448.8</ele>
        <time>2015-04-22T07:48:16Z</time>
      </trkpt>
      <trkpt lat="43.35738" lon="5.53279">
        <ele>446.7</ele>
        <time>2015-04-22T07:48:33Z</time>
      </trkpt>
      <trkpt lat="43.35738" lon="5.53277">
        <ele>446.8</ele>
        <time>2015-04-22T07:48:34Z</time>
      </trkpt>
      <trkpt lat="43.35746" lon="5.53241">
        <ele>442.2</ele>
        <time>2015-04-22T07:49:49Z</time>
      </trkpt>
      <trkpt lat="43.35747" lon="5.53241">
        <ele>442.2</ele>
        <time>2015-04-22T07:49:50Z</time>
      </trkpt>
      <trkpt lat="43.35774" lon="5.53271">
        <ele>435.7</ele>
        <time>2015-04-22T07:50:27Z</time>
      </trkpt>
      <trkpt lat="43.35791" lon="5.53272">
        <ele>433.8</ele>
        <time>2015-04-22T07:50:42Z</time>
      </trkpt>
      <trkpt lat="43.35807" lon="5.53262">
        <ele>432</ele>
        <time>2015-04-22T07:50:57Z</time>
      </trkpt>
      <trkpt lat="43.35808" lon="5.53261">
        <ele>431.7</ele>
        <time>2015-04-22T07:50:58Z</time>
      </trkpt>
      <trkpt lat="43.35833" lon="5.53231">
        <ele>429.2</ele>
        <time>2015-04-22T07:51:27Z</time>
      </trkpt>
      <trkpt lat="43.35821" lon="5.53214">
        <ele>423.1</ele>
        <time>2015-04-22T07:51:54Z</time>
      </trkpt>
      <trkpt lat="43.35808" lon="5.53198">
        <ele>418.2</ele>
        <time>2015-04-22T07:52:11Z</time>
      </trkpt>
      <trkpt lat="43.35808" lon="5.53197">
        <ele>417.7</ele>
        <time>2015-04-22T07:52:12Z</time>
      </trkpt>
      <trkpt lat="43.35801" lon="5.53151">
        <ele>418.1</ele>
        <time>2015-04-22T07:52:38Z</time>
      </trkpt>
      <trkpt lat="43.35786" lon="5.5314">
        <ele>419.1</ele>
        <time>2015-04-22T07:53:08Z</time>
      </trkpt>
      <trkpt lat="43.35769" lon="5.53142">
        <ele>420.2</ele>
        <time>2015-04-22T07:53:25Z</time>
      </trkpt>
      <trkpt lat="43.35768" lon="5.53143">
        <ele>420.2</ele>
        <time>2015-04-22T07:53:26Z</time>
      </trkpt>
      <trkpt lat="43.35735" lon="5.53156">
        <ele>422.7</ele>
        <time>2015-04-22T07:53:57Z</time>
      </trkpt>
      <trkpt lat="43.35718" lon="5.53164">
        <ele>424.7</ele>
        <time>2015-04-22T07:54:17Z</time>
      </trkpt>
      <trkpt lat="43.35703" lon="5.53176">
        <ele>425.8</ele>
        <time>2015-04-22T07:54:38Z</time>
      </trkpt>
      <trkpt lat="43.35702" lon="5.53176">
        <ele>426</ele>
        <time>2015-04-22T07:54:39Z</time>
      </trkpt>
      <trkpt lat="43.35673" lon="5.53201">
        <ele>429.7</ele>
        <time>2015-04-22T07:55:18Z</time>
      </trkpt>
      <trkpt lat="43.35659" lon="5.53216">
        <ele>430.7</ele>
        <time>2015-04-22T07:55:37Z</time>
      </trkpt>
      <trkpt lat="43.35647" lon="5.53233">
        <ele>434</ele>
        <time>2015-04-22T07:55:59Z</time>
      </trkpt>
      <trkpt lat="43.35647" lon="5.53234">
        <ele>433.7</ele>
        <time>2015-04-22T07:56:00Z</time>
      </trkpt>
      <trkpt lat="43.35624" lon="5.53269">
        <ele>439.1</ele>
        <time>2015-04-22T07:56:44Z</time>
      </trkpt>
      <trkpt lat="43.35613" lon="5.53288">
        <ele>441.5</ele>
        <time>2015-04-22T07:57:05Z</time>
      </trkpt>
      <trkpt lat="43.35613" lon="5.53288">
        <ele>441.6</ele>
        <time>2015-04-22T07:57:06Z</time>
      </trkpt>
      <trkpt lat="43.35588" lon="5.5332">
        <ele>442.2</ele>
        <time>2015-04-22T07:57:44Z</time>
      </trkpt>
      <trkpt lat="43.35574" lon="5.53336">
        <ele>445.2</ele>
        <time>2015-04-22T07:58:04Z</time>
      </trkpt>
      <trkpt lat="43.35559" lon="5.53347">
        <ele>446.7</ele>
        <time>2015-04-22T07:58:24Z</time>
      </trkpt>
      <trkpt lat="43.35558" lon="5.53348">
        <ele>447.2</ele>
        <time>2015-04-22T07:58:25Z</time>
      </trkpt>
      <trkpt lat="43.35525" lon="5.53354">
        <ele>456</ele>
        <time>2015-04-22T07:59:21Z</time>
      </trkpt>
      <trkpt lat="43.35514" lon="5.53373">
        <ele>459.2</ele>
        <time>2015-04-22T07:59:57Z</time>
      </trkpt>
      <trkpt lat="43.35513" lon="5.53373">
        <ele>459.6</ele>
        <time>2015-04-22T07:59:58Z</time>
      </trkpt>
      <trkpt lat="43.35489" lon="5.53407">
        <ele>464</ele>
        <time>2015-04-22T08:00:50Z</time>
      </trkpt>
      <trkpt lat="43.35482" lon="5.5343">
        <ele>474.2</ele>
        <time>2015-04-22T08:01:24Z</time>
      </trkpt>
      <trkpt lat="43.35482" lon="5.5343">
        <ele>474.2</ele>
        <time>2015-04-22T08:01:25Z</time>
      </trkpt>
      <trkpt lat="43.3546" lon="5.53468">
        <ele>481.5</ele>
        <time>2015-04-22T08:02:22Z</time>
      </trkpt>
      <trkpt lat="43.35456" lon="5.53491">
        <ele>486.5</ele>
        <time>2015-04-22T08:02:54Z</time>
      </trkpt>
      <trkpt lat="43.35455" lon="5.53492">
        <ele>486.2</ele>
        <time>2015-04-22T08:02:55Z</time>
      </trkpt>
      <trkpt lat="43.35449" lon="5.53539">
        <ele>491.1</ele>
        <time>2015-04-22T08:03:55Z</time>
      </trkpt>
      <trkpt lat="43.35432" lon="5.53543">
        <ele>499.7</ele>
        <time>2015-04-22T08:04:47Z</time>
      </trkpt>
      <trkpt lat="43.35431" lon="5.53542">
        <ele>499.6</ele>
        <time>2015-04-22T08:04:48Z</time>
      </trkpt>
      <trkpt lat="43.35413" lon="5.53502">
        <ele>501.7</ele>
        <time>2015-04-22T08:05:37Z</time>
      </trkpt>
      <trkpt lat="43.35409" lon="5.53479">
        <ele>506.1</ele>
        <time>2015-04-22T08:06:00Z</time>
      </trkpt>
      <trkpt lat="43.35408" lon="5.53478">
        <ele>506.2</ele>
        <time>2015-04-22T08:06:01Z</time>
      </trkpt>
      <trkpt lat="43.35399" lon="5.53433">
        <ele>520</ele>
        <time>2015-04-22T08:17:51Z</time>
      </trkpt>
      <trkpt lat="43.35399" lon="5.53433">
        <ele>520</ele>
        <time>2015-04-22T08:17:52Z</time>
      </trkpt>
      <trkpt lat="43.35365" lon="5.53423">
        <ele>521.7</ele>
        <time>2015-04-22T08:18:27Z</time>
      </trkpt>
      <trkpt lat="43.35348" lon="5.53418">
        <ele>521.5</ele>
        <time>2015-04-22T08:18:45Z</time>
      </trkpt>
      <trkpt lat="43.35331" lon="5.53413">
        <ele>523.4</ele>
        <time>2015-04-22T08:19:01Z</time>
      </trkpt>
      <trkpt lat="43.3533" lon="5.53413">
        <ele>523.4</ele>
        <time>2015-04-22T08:19:02Z</time>
      </trkpt>
      <trkpt lat="43.35296" lon="5.53405">
        <ele>524.4</ele>
        <time>2015-04-22T08:19:35Z</time>
      </trkpt>
      <trkpt lat="43.35278" lon="5.53401">
        <ele>524</ele>
        <time>2015-04-22T08:19:51Z</time>
      </trkpt>
      <trkpt lat="43.35262" lon="5.53401">
        <ele>523.2</ele>
        <time>2015-04-22T08:20:08Z</time>
      </trkpt>
      <trkpt lat="43.3526" lon="5.53401">
        <ele>523.2</ele>
        <time>2015-04-22T08:20:09Z</time>
      </trkpt>
      <trkpt lat="43.35227" lon="5.53404">
        <ele>524.2</ele>
        <time>2015-04-22T08:20:44Z</time>
      </trkpt>
      <trkpt lat="43.3521" lon="5.53407">
        <ele>525.7</ele>
        <time>2015-04-22T08:21:10Z</time>
      </trkpt>
      <trkpt lat="43.35209" lon="5.53407">
        <ele>526.4</ele>
        <time>2015-04-22T08:21:11Z</time>
      </trkpt>
      <trkpt lat="43.35184" lon="5.5344">
        <ele>532.5</ele>
        <time>2015-04-22T08:22:04Z</time>
      </trkpt>
      <trkpt lat="43.35174" lon="5.53459">
        <ele>538.4</ele>
        <time>2015-04-22T08:22:29Z</time>
      </trkpt>
      <trkpt lat="43.35173" lon="5.5346">
        <ele>538.7</ele>
        <time>2015-04-22T08:22:30Z</time>
      </trkpt>
      <trkpt lat="43.35152" lon="5.53498">
        <ele>538</ele>
        <time>2015-04-22T08:23:15Z</time>
      </trkpt>
      <trkpt lat="43.35144" lon="5.53519">
        <ele>542.7</ele>
        <time>2015-04-22T08:23:39Z</time>
      </trkpt>
      <trkpt lat="43.35143" lon="5.5352">
        <ele>543</ele>
        <time>2015-04-22T08:23:40Z</time>
      </trkpt>
      <trkpt lat="43.35114" lon="5.53544">
        <ele>547</ele>
        <time>2015-04-22T08:24:24Z</time>
      </trkpt>
      <trkpt lat="43.351" lon="5.53559">
        <ele>549.5</ele>
        <time>2015-04-22T08:24:44Z</time>
      </trkpt>
      <trkpt lat="43.351" lon="5.5356">
        <ele>548.9</ele>
        <time>2015-04-22T08:24:45Z</time>
      </trkpt>
      <trkpt lat="43.35082" lon="5.53594">
        <ele>552</ele>
        <time>2015-04-22T08:25:31Z</time>
      </trkpt>
      <trkpt lat="43.3508" lon="5.53618">
        <ele>555.7</ele>
        <time>2015-04-22T08:25:58Z</time>
      </trkpt>
      <trkpt lat="43.3508" lon="5.53619">
        <ele>555.7</ele>
        <time>2015-04-22T08:25:59Z</time>
      </trkpt>
      <trkpt lat="43.35086" lon="5.53665">
        <ele>561.4</ele>
        <time>2015-04-22T08:27:06Z</time>
      </trkpt>
      <trkpt lat="43.35086" lon="5.53666">
        <ele>561.2</ele>
        <time>2015-04-22T08:27:07Z</time>
      </trkpt>
      <trkpt lat="43.35081" lon="5.53712">
        <ele>572.2</ele>
        <time>2015-04-22T08:27:59Z</time>
      </trkpt>
      <trkpt lat="43.35079" lon="5.53737">
        <ele>574</ele>
        <time>2015-04-22T08:28:24Z</time>
      </trkpt>
      <trkpt lat="43.3508" lon="5.53737">
        <ele>573.9</ele>
        <time>2015-04-22T08:28:25Z</time>
      </trkpt>
      <trkpt lat="43.35095" lon="5.53779">
        <ele>583</ele>
        <time>2015-04-22T08:35:29Z</time>
      </trkpt>
      <trkpt lat="43.35096" lon="5.5378">
        <ele>583</ele>
        <time>2015-04-22T08:35:30Z</time>
      </trkpt>
      <trkpt lat="43.35111" lon="5.53822">
        <ele>584.7</ele>
        <time>2015-04-22T08:36:13Z</time>
      </trkpt>
      <trkpt lat="43.35114" lon="5.53845">
        <ele>587</ele>
        <time>2015-04-22T08:36:35Z</time>
      </trkpt>
      <trkpt lat="43.35114" lon="5.53846">
        <ele>587</ele>
        <time>2015-04-22T08:36:36Z</time>
      </trkpt>
      <trkpt lat="43.35119" lon="5.53893">
        <ele>594.5</ele>
        <time>2015-04-22T08:37:23Z</time>
      </trkpt>
      <trkpt lat="43.35119" lon="5.53918">
        <ele>597</ele>
        <time>2015-04-22T08:37:43Z</time>
      </trkpt>
      <trkpt lat="43.35118" lon="5.53919">
        <ele>597</ele>
        <time>2015-04-22T08:37:44Z</time>
      </trkpt>
      <trkpt lat="43.35109" lon="5.53964">
        <ele>602.2</ele>
        <time>2015-04-22T08:38:27Z</time>
      </trkpt>
      <trkpt lat="43.35102" lon="5.53986">
        <ele>605.7</ele>
        <time>2015-04-22T08:38:48Z</time>
      </trkpt>
      <trkpt lat="43.35102" lon="5.53987">
        <ele>605.5</ele>
        <time>2015-04-22T08:38:49Z</time>
      </trkpt>
      <trkpt lat="43.35082" lon="5.54026">
        <ele>612.9</ele>
        <time>2015-04-22T08:39:42Z</time>
      </trkpt>
      <trkpt lat="43.35068" lon="5.54041">
        <ele>618.7</ele>
        <time>2015-04-22T08:40:11Z</time>
      </trkpt>
      <trkpt lat="43.35068" lon="5.54042">
        <ele>618.2</ele>
        <time>2015-04-22T08:40:12Z</time>
      </trkpt>
      <trkpt lat="43.35085" lon="5.54084">
        <ele>618.9</ele>
        <time>2015-04-22T08:41:04Z</time>
      </trkpt>
      <trkpt lat="43.35096" lon="5.54104">
        <ele>621</ele>
        <time>2015-04-22T08:41:29Z</time>
      </trkpt>
      <trkpt lat="43.35096" lon="5.54104">
        <ele>621</ele>
        <time>2015-04-22T08:41:30Z</time>
      </trkpt>
      <trkpt lat="43.35114" lon="5.54145">
        <ele>625.2</ele>
        <time>2015-04-22T08:42:26Z</time>
      </trkpt>
      <trkpt lat="43.35123" lon="5.54166">
        <ele>633</ele>
        <time>2015-04-22T08:42:52Z</time>
      </trkpt>
      <trkpt lat="43.35123" lon="5.54166">
        <ele>633.2</ele>
        <time>2015-04-22T08:42:53Z</time>
      </trkpt>
      <trkpt lat="43.35141" lon="5.54206">
        <ele>635.5</ele>
        <time>2015-04-22T08:43:42Z</time>
      </trkpt>
      <trkpt lat="43.35155" lon="5.54221">
        <ele>640</ele>
        <time>2015-04-22T08:44:02Z</time>
      </trkpt>
      <trkpt lat="43.35155" lon="5.54223">
        <ele>639.9</ele>
        <time>2015-04-22T08:44:03Z</time>
      </trkpt>
      <trkpt lat="43.35175" lon="5.54261">
        <ele>644.7</ele>
        <time>2015-04-22T08:44:43Z</time>
      </trkpt>
      <trkpt lat="43.35187" lon="5.54278">
        <ele>651</ele>
        <time>2015-04-22T08:45:04Z</time>
      </trkpt>
      <trkpt lat="43.35188" lon="5.54279">
        <ele>651</ele>
        <time>2015-04-22T08:45:05Z</time>
      </trkpt>
      <trkpt lat="43.35206" lon="5.54319">
        <ele>654.2</ele>
        <time>2015-04-22T08:45:55Z</time>
      </trkpt>
      <trkpt lat="43.3521" lon="5.54343">
        <ele>657</ele>
        <time>2015-04-22T08:46:15Z</time>
      </trkpt>
      <trkpt lat="43.3521" lon="5.54345">
        <ele>657.5</ele>
        <time>2015-04-22T08:46:16Z</time>
      </trkpt>
      <trkpt lat="43.35212" lon="5.54391">
        <ele>665.9</ele>
        <time>2015-04-22T08:47:33Z</time>
      </trkpt>
      <trkpt lat="43.35213" lon="5.54392">
        <ele>665.7</ele>
        <time>2015-04-22T08:47:34Z</time>
      </trkpt>
      <trkpt lat="43.35213" lon="5.54416">
        <ele>667.4</ele>
        <time>2015-04-22T08:56:22Z</time>
      </trkpt>
      <trkpt lat="43.35206" lon="5.54462">
        <ele>655</ele>
        <time>2015-04-22T08:57:02Z</time>
      </trkpt>
      <trkpt lat="43.35205" lon="5.54485">
        <ele>649.2</ele>
        <time>2015-04-22T08:57:21Z</time>
      </trkpt>
      <trkpt lat="43.35205" lon="5.5451">
        <ele>647</ele>
        <time>2015-04-22T08:57:39Z</time>
      </trkpt>
      <trkpt lat="43.35205" lon="5.54511">
        <ele>646.7</ele>
        <time>2015-04-22T08:57:40Z</time>
      </trkpt>
      <trkpt lat="43.35212" lon="5.54556">
        <ele>646.7</ele>
        <time>2015-04-22T08:58:09Z</time>
      </trkpt>
      <trkpt lat="43.35217" lon="5.54579">
        <ele>650.7</ele>
        <time>2015-04-22T08:58:22Z</time>
      </trkpt>
      <trkpt lat="43.35223" lon="5.54601">
        <ele>652.2</ele>
        <time>2015-04-22T08:58:36Z</time>
      </trkpt>
      <trkpt lat="43.35227" lon="5.54624">
        <ele>651.2</ele>
        <time>2015-04-22T08:58:51Z</time>
      </trkpt>
      <trkpt lat="43.35227" lon="5.54626">
        <ele>651.2</ele>
        <time>2015-04-22T08:58:52Z</time>
      </trkpt>
      <trkpt lat="43.352" lon="5.54645">
        <ele>649.2</ele>
        <time>2015-04-22T08:59:30Z</time>
      </trkpt>
      <trkpt lat="43.35183" lon="5.54648">
        <ele>648.5</ele>
        <time>2015-04-22T08:59:48Z</time>
      </trkpt>
      <trkpt lat="43.35166" lon="5.54652">
        <ele>647.5</ele>
        <time>2015-04-22T09:00:05Z</time>
      </trkpt>
      <trkpt lat="43.35165" lon="5.54652">
        <ele>647.5</ele>
        <time>2015-04-22T09:00:06Z</time>
      </trkpt>
      <trkpt lat="43.35132" lon="5.54653">
        <ele>645.4</ele>
        <time>2015-04-22T09:01:00Z</time>
      </trkpt>
      <trkpt lat="43.35115" lon="5.54658">
        <ele>647.7</ele>
        <time>2015-04-22T09:01:22Z</time>
      </trkpt>
      <trkpt lat="43.35114" lon="5.54659">
        <ele>647.7</ele>
        <time>2015-04-22T09:01:23Z</time>
      </trkpt>
      <trkpt lat="43.3508" lon="5.54669">
        <ele>649</ele>
        <time>2015-04-22T09:01:51Z</time>
      </trkpt>
      <trkpt lat="43.35063" lon="5.54665">
        <ele>647.4</ele>
        <time>2015-04-22T09:02:08Z</time>
      </trkpt>
      <trkpt lat="43.35046" lon="5.54662">
        <ele>643.9</ele>
        <time>2015-04-22T09:02:24Z</time>
      </trkpt>
      <trkpt lat="43.35045" lon="5.54662">
        <ele>644</ele>
        <time>2015-04-22T09:02:25Z</time>
      </trkpt>
      <trkpt lat="43.35019" lon="5.54685">
        <ele>641.4</ele>
        <time>2015-04-22T09:03:08Z</time>
      </trkpt>
      <trkpt lat="43.35028" lon="5.54707">
        <ele>636.5</ele>
        <time>2015-04-22T09:03:33Z</time>
      </trkpt>
      <trkpt lat="43.35028" lon="5.54707">
        <ele>635.9</ele>
        <time>2015-04-22T09:03:34Z</time>
      </trkpt>
      <trkpt lat="43.35038" lon="5.54738">
        <ele>638.9</ele>
        <time>2015-04-22T09:04:57Z</time>
      </trkpt>
      <trkpt lat="43.35039" lon="5.54738">
        <ele>638.5</ele>
        <time>2015-04-22T09:04:58Z</time>
      </trkpt>
      <trkpt lat="43.35071" lon="5.54758">
        <ele>633</ele>
        <time>2015-04-22T09:05:50Z</time>
      </trkpt>
      <trkpt lat="43.35085" lon="5.54773">
        <ele>632.9</ele>
        <time>2015-04-22T09:06:44Z</time>
      </trkpt>
      <trkpt lat="43.35086" lon="5.54773">
        <ele>632.7</ele>
        <time>2015-04-22T09:06:45Z</time>
      </trkpt>
      <trkpt lat="43.35117" lon="5.54793">
        <ele>628</ele>
        <time>2015-04-22T09:07:39Z</time>
      </trkpt>
      <trkpt lat="43.3513" lon="5.54809">
        <ele>627</ele>
        <time>2015-04-22T09:08:01Z</time>
      </trkpt>
      <trkpt lat="43.3513" lon="5.5481">
        <ele>627.4</ele>
        <time>2015-04-22T09:08:02Z</time>
      </trkpt>
      <trkpt lat="43.35137" lon="5.54856">
        <ele>618</ele>
        <time>2015-04-22T09:08:45Z</time>
      </trkpt>
      <trkpt lat="43.35134" lon="5.54879">
        <ele>618</ele>
        <time>2015-04-22T09:09:05Z</time>
      </trkpt>
      <trkpt lat="43.35134" lon="5.5488">
        <ele>618.5</ele>
        <time>2015-04-22T09:09:06Z</time>
      </trkpt>
      <trkpt lat="43.3512" lon="5.54921">
        <ele>627.5</ele>
        <time>2015-04-22T09:09:52Z</time>
      </trkpt>
      <trkpt lat="43.35113" lon="5.54943">
        <ele>624.2</ele>
        <time>2015-04-22T09:10:09Z</time>
      </trkpt>
      <trkpt lat="43.35113" lon="5.54944">
        <ele>624.5</ele>
        <time>2015-04-22T09:10:10Z</time>
      </trkpt>
      <trkpt lat="43.35107" lon="5.54987">
        <ele>634</ele>
        <time>2015-04-22T09:16:37Z</time>
      </trkpt>
      <trkpt lat="43.35107" lon="5.54987">
        <ele>634</ele>
        <time>2015-04-22T09:16:38Z</time>
      </trkpt>
      <trkpt lat="43.35115" lon="5.54964">
        <ele>632.5</ele>
        <time>2015-04-22T09:19:43Z</time>
      </trkpt>
      <trkpt lat="43.35129" lon="5.54922">
        <ele>627.5</ele>
        <time>2015-04-22T09:20:24Z</time>
      </trkpt>
      <trkpt lat="43.35131" lon="5.54898">
        <ele>627.7</ele>
        <time>2015-04-22T09:20:43Z</time>
      </trkpt>
      <trkpt lat="43.35131" lon="5.54897">
        <ele>627.5</ele>
        <time>2015-04-22T09:20:44Z</time>
      </trkpt>
      <trkpt lat="43.35157" lon="5.54874">
        <ele>626</ele>
        <time>2015-04-22T09:21:18Z</time>
      </trkpt>
      <trkpt lat="43.35172" lon="5.54885">
        <ele>626.9</ele>
        <time>2015-04-22T09:21:34Z</time>
      </trkpt>
      <trkpt lat="43.35183" lon="5.54903">
        <ele>628.9</ele>
        <time>2015-04-22T09:21:51Z</time>
      </trkpt>
      <trkpt lat="43.35184" lon="5.54904">
        <ele>628.7</ele>
        <time>2015-04-22T09:21:52Z</time>
      </trkpt>
      <trkpt lat="43.35215" lon="5.54921">
        <ele>629</ele>
        <time>2015-04-22T09:22:25Z</time>
      </trkpt>
      <trkpt lat="43.35232" lon="5.54917">
        <ele>629.5</ele>
        <time>2015-04-22T09:22:42Z</time>
      </trkpt>
      <trkpt lat="43.35249" lon="5.54911">
        <ele>632.2</ele>
        <time>2015-04-22T09:22:59Z</time>
      </trkpt>
      <trkpt lat="43.3525" lon="5.5491">
        <ele>632.2</ele>
        <time>2015-04-22T09:23:00Z</time>
      </trkpt>
      <trkpt lat="43.35282" lon="5.54915">
        <ele>633.7</ele>
        <time>2015-04-22T09:23:28Z</time>
      </trkpt>
      <trkpt lat="43.35296" lon="5.54929">
        <ele>635</ele>
        <time>2015-04-22T09:23:43Z</time>
      </trkpt>
      <trkpt lat="43.35308" lon="5.54947">
        <ele>635.4</ele>
        <time>2015-04-22T09:23:59Z</time>
      </trkpt>
      <trkpt lat="43.35321" lon="5.54963">
        <ele>635</ele>
        <time>2015-04-22T09:24:13Z</time>
      </trkpt>
      <trkpt lat="43.35322" lon="5.54964">
        <ele>634.7</ele>
        <time>2015-04-22T09:24:14Z</time>
      </trkpt>
      <trkpt lat="43.35329" lon="5.55007">
        <ele>629.2</ele>
        <time>2015-04-22T09:24:49Z</time>
      </trkpt>
      <trkpt lat="43.35329" lon="5.55031">
        <ele>627.7</ele>
        <time>2015-04-22T09:25:05Z</time>
      </trkpt>
      <trkpt lat="43.35328" lon="5.55055">
        <ele>627</ele>
        <time>2015-04-22T09:25:20Z</time>
      </trkpt>
      <trkpt lat="43.35327" lon="5.55056">
        <ele>627</ele>
        <time>2015-04-22T09:25:21Z</time>
      </trkpt>
      <trkpt lat="43.3532" lon="5.55102">
        <ele>627.7</ele>
        <time>2015-04-22T09:25:49Z</time>
      </trkpt>
      <trkpt lat="43.35319" lon="5.55126">
        <ele>627</ele>
        <time>2015-04-22T09:26:04Z</time>
      </trkpt>
      <trkpt lat="43.35324" lon="5.55148">
        <ele>624.5</ele>
        <time>2015-04-22T09:26:20Z</time>
      </trkpt>
      <trkpt lat="43.35332" lon="5.5517">
        <ele>625.9</ele>
        <time>2015-04-22T09:26:35Z</time>
      </trkpt>
      <trkpt lat="43.35332" lon="5.55171">
        <ele>625.7</ele>
        <time>2015-04-22T09:26:36Z</time>
      </trkpt>
      <trkpt lat="43.35355" lon="5.55204">
        <ele>629</ele>
        <time>2015-04-22T09:27:05Z</time>
      </trkpt>
      <trkpt lat="43.35369" lon="5.55218">
        <ele>629.5</ele>
        <time>2015-04-22T09:27:21Z</time>
      </trkpt>
      <trkpt lat="43.35383" lon="5.55233">
        <ele>627.4</ele>
        <time>2015-04-22T09:27:43Z</time>
      </trkpt>
      <trkpt lat="43.35384" lon="5.55234">
        <ele>627</ele>
        <time>2015-04-22T09:27:44Z</time>
      </trkpt>
      <trkpt lat="43.35411" lon="5.55261">
        <ele>623.2</ele>
        <time>2015-04-22T09:28:16Z</time>
      </trkpt>
      <trkpt lat="43.35428" lon="5.55265">
        <ele>622.9</ele>
        <time>2015-04-22T09:28:32Z</time>
      </trkpt>
      <trkpt lat="43.35445" lon="5.55268">
        <ele>621.5</ele>
        <time>2015-04-22T09:28:55Z</time>
      </trkpt>
      <trkpt lat="43.35446" lon="5.55269">
        <ele>621.5</ele>
        <time>2015-04-22T09:28:56Z</time>
      </trkpt>
      <trkpt lat="43.35478" lon="5.55284">
        <ele>618.7</ele>
        <time>2015-04-22T09:29:26Z</time>
      </trkpt>
      <trkpt lat="43.35491" lon="5.553">
        <ele>614.7</ele>
        <time>2015-04-22T09:29:44Z</time>
      </trkpt>
      <trkpt lat="43.35503" lon="5.55317">
        <ele>611.7</ele>
        <time>2015-04-22T09:29:59Z</time>
      </trkpt>
      <trkpt lat="43.35504" lon="5.55318">
        <ele>611.9</ele>
        <time>2015-04-22T09:30:00Z</time>
      </trkpt>
      <trkpt lat="43.35517" lon="5.55361">
        <ele>610.5</ele>
        <time>2015-04-22T09:30:30Z</time>
      </trkpt>
      <trkpt lat="43.35523" lon="5.55383">
        <ele>609.2</ele>
        <time>2015-04-22T09:30:47Z</time>
      </trkpt>
      <trkpt lat="43.35533" lon="5.55403">
        <ele>611</ele>
        <time>2015-04-22T09:31:05Z</time>
      </trkpt>
      <trkpt lat="43.35534" lon="5.55404">
        <ele>611</ele>
        <time>2015-04-22T09:31:06Z</time>
      </trkpt>
      <trkpt lat="43.3556" lon="5.55431">
        <ele>615.4</ele>
        <time>2015-04-22T09:31:37Z</time>
      </trkpt>
      <trkpt lat="43.35572" lon="5.55449">
        <ele>617.7</ele>
        <time>2015-04-22T09:31:57Z</time>
      </trkpt>
      <trkpt lat="43.35579" lon="5.55471">
        <ele>618</ele>
        <time>2015-04-22T09:32:14Z</time>
      </trkpt>
      <trkpt lat="43.35579" lon="5.55472">
        <ele>618</ele>
        <time>2015-04-22T09:32:15Z</time>
      </trkpt>
      <trkpt lat="43.3559" lon="5.55517">
        <ele>616.7</ele>
        <time>2015-04-22T09:32:48Z</time>
      </trkpt>
      <trkpt lat="43.35595" lon="5.55539">
        <ele>616.7</ele>
        <time>2015-04-22T09:33:05Z</time>
      </trkpt>
      <trkpt lat="43.356" lon="5.55563">
        <ele>616.5</ele>
        <time>2015-04-22T09:33:22Z</time>
      </trkpt>
      <trkpt lat="43.356" lon="5.55565">
        <ele>616.5</ele>
        <time>2015-04-22T09:33:23Z</time>
      </trkpt>
      <trkpt lat="43.35598" lon="5.55611">
        <ele>616.2</ele>
        <time>2015-04-22T09:33:55Z</time>
      </trkpt>
      <trkpt lat="43.35592" lon="5.55634">
        <ele>614</ele>
        <time>2015-04-22T09:34:13Z</time>
      </trkpt>
      <trkpt lat="43.35581" lon="5.55652">
        <ele>613</ele>
        <time>2015-04-22T09:34:32Z</time>
      </trkpt>
      <trkpt lat="43.35581" lon="5.55653">
        <ele>613</ele>
        <time>2015-04-22T09:34:33Z</time>
      </trkpt>
      <trkpt lat="43.35556" lon="5.55685">
        <ele>610.9</ele>
        <time>2015-04-22T09:35:06Z</time>
      </trkpt>
      <trkpt lat="43.35539" lon="5.55689">
        <ele>610</ele>
        <time>2015-04-22T09:35:23Z</time>
      </trkpt>
      <trkpt lat="43.35525" lon="5.55703">
        <ele>607.5</ele>
        <time>2015-04-22T09:35:43Z</time>
      </trkpt>
      <trkpt lat="43.35525" lon="5.55704">
        <ele>607.4</ele>
        <time>2015-04-22T09:35:44Z</time>
      </trkpt>
      <trkpt lat="43.35523" lon="5.55742">
        <ele>600.4</ele>
        <time>2015-04-22T09:36:22Z</time>
      </trkpt>
      <trkpt lat="43.35513" lon="5.55762">
        <ele>597.7</ele>
        <time>2015-04-22T09:36:43Z</time>
      </trkpt>
      <trkpt lat="43.35519" lon="5.55785">
        <ele>595.7</ele>
        <time>2015-04-22T09:37:01Z</time>
      </trkpt>
      <trkpt lat="43.35519" lon="5.55787">
        <ele>595.4</ele>
        <time>2015-04-22T09:37:02Z</time>
      </trkpt>
      <trkpt lat="43.35517" lon="5.55832">
        <ele>592.5</ele>
        <time>2015-04-22T09:37:34Z</time>
      </trkpt>
      <trkpt lat="43.35507" lon="5.55851">
        <ele>592</ele>
        <time>2015-04-22T09:37:50Z</time>
      </trkpt>
      <trkpt lat="43.35495" lon="5.55869">
        <ele>590.5</ele>
        <time>2015-04-22T09:38:07Z</time>
      </trkpt>
      <trkpt lat="43.35494" lon="5.5587">
        <ele>590.5</ele>
        <time>2015-04-22T09:38:08Z</time>
      </trkpt>
      <trkpt lat="43.35472" lon="5.55905">
        <ele>587</ele>
        <time>2015-04-22T09:38:40Z</time>
      </trkpt>
      <trkpt lat="43.35461" lon="5.55922">
        <ele>584.2</ele>
        <time>2015-04-22T09:38:57Z</time>
      </trkpt>
      <trkpt lat="43.35447" lon="5.55937">
        <ele>583</ele>
        <time>2015-04-22T09:39:13Z</time>
      </trkpt>
      <trkpt lat="43.35446" lon="5.55938">
        <ele>583</ele>
        <time>2015-04-22T09:39:14Z</time>
      </trkpt>
      <trkpt lat="43.35435" lon="5.55958">
        <ele>582.2</ele>
        <time>2015-04-22T09:39:37Z</time>
      </trkpt>
      <trkpt lat="43.35435" lon="5.55958">
        <ele>582.2</ele>
        <time>2015-04-22T09:39:37Z</time>
      </trkpt>
      <trkpt lat="43.35426" lon="5.5596">
        <ele>576</ele>
        <time>2015-04-22T11:06:03Z</time>
      </trkpt>
      <trkpt lat="43.35426" lon="5.5596">
        <ele>576.4</ele>
        <time>2015-04-22T11:06:04Z</time>
      </trkpt>
      <trkpt lat="43.35441" lon="5.55974">
        <ele>581.7</ele>
        <time>2015-04-22T11:06:46Z</time>
      </trkpt>
      <trkpt lat="43.35441" lon="5.55975">
        <ele>581.7</ele>
        <time>2015-04-22T11:06:47Z</time>
      </trkpt>
      <trkpt lat="43.35445" lon="5.56021">
        <ele>582.9</ele>
        <time>2015-04-22T11:07:25Z</time>
      </trkpt>
      <trkpt lat="43.35443" lon="5.56045">
        <ele>581.4</ele>
        <time>2015-04-22T11:07:45Z</time>
      </trkpt>
      <trkpt lat="43.3544" lon="5.56068">
        <ele>578.7</ele>
        <time>2015-04-22T11:08:05Z</time>
      </trkpt>
      <trkpt lat="43.35439" lon="5.56069">
        <ele>578.7</ele>
        <time>2015-04-22T11:08:06Z</time>
      </trkpt>
      <trkpt lat="43.35439" lon="5.56115">
        <ele>582.5</ele>
        <time>2015-04-22T11:08:41Z</time>
      </trkpt>
      <trkpt lat="43.35446" lon="5.56138">
        <ele>584.5</ele>
        <time>2015-04-22T11:08:57Z</time>
      </trkpt>
      <trkpt lat="43.35455" lon="5.56159">
        <ele>585.5</ele>
        <time>2015-04-22T11:09:13Z</time>
      </trkpt>
      <trkpt lat="43.35455" lon="5.5616">
        <ele>585.7</ele>
        <time>2015-04-22T11:09:14Z</time>
      </trkpt>
      <trkpt lat="43.35472" lon="5.56201">
        <ele>584.9</ele>
        <time>2015-04-22T11:09:48Z</time>
      </trkpt>
      <trkpt lat="43.35474" lon="5.56224">
        <ele>583.5</ele>
        <time>2015-04-22T11:10:05Z</time>
      </trkpt>
      <trkpt lat="43.35475" lon="5.56248">
        <ele>582</ele>
        <time>2015-04-22T11:10:23Z</time>
      </trkpt>
      <trkpt lat="43.35475" lon="5.5625">
        <ele>582</ele>
        <time>2015-04-22T11:10:24Z</time>
      </trkpt>
      <trkpt lat="43.35471" lon="5.56296">
        <ele>579</ele>
        <time>2015-04-22T11:11:08Z</time>
      </trkpt>
      <trkpt lat="43.35467" lon="5.56319">
        <ele>578.7</ele>
        <time>2015-04-22T11:11:24Z</time>
      </trkpt>
      <trkpt lat="43.35467" lon="5.5632">
        <ele>578.9</ele>
        <time>2015-04-22T11:11:25Z</time>
      </trkpt>
      <trkpt lat="43.35473" lon="5.56357">
        <ele>576.9</ele>
        <time>2015-04-22T11:12:13Z</time>
      </trkpt>
      <trkpt lat="43.35491" lon="5.56351">
        <ele>575.7</ele>
        <time>2015-04-22T11:12:30Z</time>
      </trkpt>
      <trkpt lat="43.35492" lon="5.56351">
        <ele>575.7</ele>
        <time>2015-04-22T11:12:31Z</time>
      </trkpt>
      <trkpt lat="43.35525" lon="5.56355">
        <ele>575</ele>
        <time>2015-04-22T11:13:04Z</time>
      </trkpt>
      <trkpt lat="43.35541" lon="5.56365">
        <ele>574.2</ele>
        <time>2015-04-22T11:13:21Z</time>
      </trkpt>
      <trkpt lat="43.35556" lon="5.56377">
        <ele>574.5</ele>
        <time>2015-04-22T11:13:36Z</time>
      </trkpt>
      <trkpt lat="43.35557" lon="5.56378">
        <ele>574.5</ele>
        <time>2015-04-22T11:13:37Z</time>
      </trkpt>
      <trkpt lat="43.35584" lon="5.56406">
        <ele>573</ele>
        <time>2015-04-22T11:14:10Z</time>
      </trkpt>
      <trkpt lat="43.35599" lon="5.56417">
        <ele>574</ele>
        <time>2015-04-22T11:14:26Z</time>
      </trkpt>
      <trkpt lat="43.35613" lon="5.56432">
        <ele>573.7</ele>
        <time>2015-04-22T11:14:42Z</time>
      </trkpt>
      <trkpt lat="43.35614" lon="5.56432">
        <ele>573.7</ele>
        <time>2015-04-22T11:14:43Z</time>
      </trkpt>
      <trkpt lat="43.35639" lon="5.56464">
        <ele>573</ele>
        <time>2015-04-22T11:15:15Z</time>
      </trkpt>
      <trkpt lat="43.35647" lon="5.56485">
        <ele>572.2</ele>
        <time>2015-04-22T11:15:34Z</time>
      </trkpt>
    </trkseg>
  </trk>
</gpx>